sensor_id;sensor_type;location;lat;lon;timestamp;pressure;altitude;pressure_sealevel;temperature;humidity
26487;BME280;14425;56.136;40.360;2023-05-17T00:01:19;100259.22;;;12.22;75.57
26487;BME280;14425;56.136;40.360;2023-05-17T00:03:44;100255.28;;;12.31;76.73
26487;BME280;14425;56.136;40.360;2023-05-17T00:06:10;100259.09;;;12.18;78.67
26487;BME280;14425;56.136;40.360;2023-05-17T00:08:35;100255.34;;;12.10;78.02
26487;BME280;14425;56.136;40.360;2023-05-17T00:11:01;100265.16;;;12.42;75.75
26487;BME280;14425;56.136;40.360;2023-05-17T00:13:26;100262.84;;;12.72;72.88
26487;BME280;14425;56.136;40.360;2023-05-17T00:15:52;100266.84;;;12.41;76.78
26487;BME280;14425;56.136;40.360;2023-05-17T00:18:17;100263.06;;;12.09;78.09
26487;BME280;14425;56.136;40.360;2023-05-17T00:20:43;100268.72;;;12.00;73.49
26487;BME280;14425;56.136;40.360;2023-05-17T00:23:08;100268.75;;;12.23;75.33
26487;BME280;14425;56.136;40.360;2023-05-17T00:25:34;100263.53;;;12.44;73.72
26487;BME280;14425;56.136;40.360;2023-05-17T00:27:59;100261.19;;;12.74;65.44
26487;BME280;14425;56.136;40.360;2023-05-17T00:30:25;100261.22;;;13.00;62.35
26487;BME280;14425;56.136;40.360;2023-05-17T00:32:50;100260.75;;;13.10;59.89
26487;BME280;14425;56.136;40.360;2023-05-17T00:35:16;100265.50;;;13.23;59.82
26487;BME280;14425;56.136;40.360;2023-05-17T00:37:41;100255.41;;;13.31;57.43
26487;BME280;14425;56.136;40.360;2023-05-17T00:40:12;100258.19;;;13.36;58.11
26487;BME280;14425;56.136;40.360;2023-05-17T00:42:38;100267.91;;;13.43;60.16
26487;BME280;14425;56.136;40.360;2023-05-17T00:45:04;100260.94;;;13.40;58.90
26487;BME280;14425;56.136;40.360;2023-05-17T00:47:31;100267.69;;;13.35;58.09
26487;BME280;14425;56.136;40.360;2023-05-17T00:49:56;100267.31;;;13.26;60.45
26487;BME280;14425;56.136;40.360;2023-05-17T00:52:22;100268.75;;;13.18;59.56
26487;BME280;14425;56.136;40.360;2023-05-17T00:54:49;100272.72;;;13.08;59.34
26487;BME280;14425;56.136;40.360;2023-05-17T00:57:15;100272.63;;;13.05;59.33
26487;BME280;14425;56.136;40.360;2023-05-17T00:59:41;100274.84;;;12.94;59.61
26487;BME280;14425;56.136;40.360;2023-05-17T01:02:08;100266.59;;;12.80;61.17
26487;BME280;14425;56.136;40.360;2023-05-17T01:04:35;100271.41;;;12.71;61.38
26487;BME280;14425;56.136;40.360;2023-05-17T01:07:01;100272.22;;;12.70;62.30
26487;BME280;14425;56.136;40.360;2023-05-17T01:09:27;100272.03;;;12.64;63.72
26487;BME280;14425;56.136;40.360;2023-05-17T01:14:40;100276.91;;;12.56;64.90
26487;BME280;14425;56.136;40.360;2023-05-17T01:20:22;100282.13;;;12.57;68.90
26487;BME280;14425;56.136;40.360;2023-05-17T01:28:16;100280.66;;;12.42;65.94
26487;BME280;14425;56.136;40.360;2023-05-17T01:30:44;100280.28;;;12.53;66.13
26487;BME280;14425;56.136;40.360;2023-05-17T01:33:11;100284.91;;;12.62;64.81
26487;BME280;14425;56.136;40.360;2023-05-17T01:35:37;100285.44;;;12.53;67.86
26487;BME280;14425;56.136;40.360;2023-05-17T01:38:02;100285.50;;;12.32;70.00
26487;BME280;14425;56.136;40.360;2023-05-17T01:40:29;100295.53;;;12.02;71.09
26487;BME280;14425;56.136;40.360;2023-05-17T01:43:34;100292.38;;;12.32;70.27
26487;BME280;14425;56.136;40.360;2023-05-17T01:46:06;100291.91;;;12.19;69.25
26487;BME280;14425;56.136;40.360;2023-05-17T01:48:38;100295.00;;;12.11;69.78
26487;BME280;14425;56.136;40.360;2023-05-17T01:51:04;100298.13;;;12.25;69.85
26487;BME280;14425;56.136;40.360;2023-05-17T01:53:38;100297.38;;;12.27;70.29
26487;BME280;14425;56.136;40.360;2023-05-17T01:56:07;100287.78;;;12.25;69.42
26487;BME280;14425;56.136;40.360;2023-05-17T01:58:38;100302.81;;;12.35;68.83
26487;BME280;14425;56.136;40.360;2023-05-17T02:01:07;100303.66;;;12.34;68.23
26487;BME280;14425;56.136;40.360;2023-05-17T02:03:33;100299.19;;;12.52;68.12
26487;BME280;14425;56.136;40.360;2023-05-17T02:05:59;100305.94;;;12.71;66.23
26487;BME280;14425;56.136;40.360;2023-05-17T02:08:24;100303.75;;;12.82;64.72
26487;BME280;14425;56.136;40.360;2023-05-17T02:10:50;100303.94;;;12.87;64.88
26487;BME280;14425;56.136;40.360;2023-05-17T02:13:15;100311.97;;;12.94;63.11
26487;BME280;14425;56.136;40.360;2023-05-17T02:15:41;100307.13;;;13.04;62.88
26487;BME280;14425;56.136;40.360;2023-05-17T02:18:07;100309.22;;;13.14;62.14
26487;BME280;14425;56.136;40.360;2023-05-17T02:20:52;100311.34;;;13.26;61.34
26487;BME280;14425;56.136;40.360;2023-05-17T02:23:18;100312.13;;;13.23;64.28
26487;BME280;14425;56.136;40.360;2023-05-17T02:25:43;100317.91;;;13.16;65.90
26487;BME280;14425;56.136;40.360;2023-05-17T02:28:09;100308.34;;;13.38;65.30
26487;BME280;14425;56.136;40.360;2023-05-17T02:30:35;100320.31;;;13.34;66.07
26487;BME280;14425;56.136;40.360;2023-05-17T02:33:01;100318.88;;;13.20;68.93
26487;BME280;14425;56.136;40.360;2023-05-17T02:35:26;100318.25;;;13.01;70.32
26487;BME280;14425;56.136;40.360;2023-05-17T02:37:52;100318.88;;;13.18;70.06
26487;BME280;14425;56.136;40.360;2023-05-17T02:40:18;100316.88;;;13.11;70.80
26487;BME280;14425;56.136;40.360;2023-05-17T02:42:43;100315.38;;;13.18;71.90
26487;BME280;14425;56.136;40.360;2023-05-17T02:45:09;100319.91;;;13.23;69.91
26487;BME280;14425;56.136;40.360;2023-05-17T02:47:35;100324.97;;;13.20;70.80
26487;BME280;14425;56.136;40.360;2023-05-17T02:50:00;100324.47;;;13.30;68.17
26487;BME280;14425;56.136;40.360;2023-05-17T02:52:26;100330.88;;;13.40;66.26
26487;BME280;14425;56.136;40.360;2023-05-17T02:54:51;100328.53;;;13.46;65.80
26487;BME280;14425;56.136;40.360;2023-05-17T02:57:17;100332.19;;;13.53;64.65
26487;BME280;14425;56.136;40.360;2023-05-17T02:59:42;100331.34;;;13.54;66.52
26487;BME280;14425;56.136;40.360;2023-05-17T03:02:08;100340.06;;;13.56;71.97
26487;BME280;14425;56.136;40.360;2023-05-17T03:04:33;100337.50;;;13.58;70.92
26487;BME280;14425;56.136;40.360;2023-05-17T03:06:59;100342.50;;;13.52;73.65
26487;BME280;14425;56.136;40.360;2023-05-17T03:09:24;100338.31;;;13.55;70.29
26487;BME280;14425;56.136;40.360;2023-05-17T03:11:50;100344.63;;;13.63;71.87
26487;BME280;14425;56.136;40.360;2023-05-17T03:14:15;100339.91;;;13.52;69.77
26487;BME280;14425;56.136;40.360;2023-05-17T03:16:41;100338.38;;;13.57;68.98
26487;BME280;14425;56.136;40.360;2023-05-17T03:19:06;100337.44;;;13.55;68.77
26487;BME280;14425;56.136;40.360;2023-05-17T03:21:32;100336.19;;;13.69;67.80
26487;BME280;14425;56.136;40.360;2023-05-17T03:23:57;100334.13;;;13.86;66.37
26487;BME280;14425;56.136;40.360;2023-05-17T03:26:23;100332.72;;;13.96;66.06
26487;BME280;14425;56.136;40.360;2023-05-17T03:28:49;100334.66;;;14.01;66.60
26487;BME280;14425;56.136;40.360;2023-05-17T03:31:14;100340.50;;;14.50;63.61
26487;BME280;14425;56.136;40.360;2023-05-17T03:33:41;100339.94;;;14.59;63.50
26487;BME280;14425;56.136;40.360;2023-05-17T03:36:07;100334.97;;;14.67;64.08
26487;BME280;14425;56.136;40.360;2023-05-17T03:38:32;100342.72;;;14.65;64.66
26487;BME280;14425;56.136;40.360;2023-05-17T03:40:58;100340.03;;;14.62;65.91
26487;BME280;14425;56.136;40.360;2023-05-17T03:43:24;100338.16;;;14.58;63.21
26487;BME280;14425;56.136;40.360;2023-05-17T03:45:49;100340.06;;;14.64;62.42
26487;BME280;14425;56.136;40.360;2023-05-17T03:48:15;100341.13;;;14.70;62.05
26487;BME280;14425;56.136;40.360;2023-05-17T03:50:41;100354.97;;;14.71;61.10
26487;BME280;14425;56.136;40.360;2023-05-17T03:53:06;100353.59;;;14.82;61.53
26487;BME280;14425;56.136;40.360;2023-05-17T03:55:32;100357.13;;;15.78;56.95
26487;BME280;14425;56.136;40.360;2023-05-17T03:57:57;100343.53;;;16.25;55.71
26487;BME280;14425;56.136;40.360;2023-05-17T04:00:23;100345.47;;;16.72;54.17
26487;BME280;14425;56.136;40.360;2023-05-17T04:02:49;100343.34;;;16.95;53.11
26487;BME280;14425;56.136;40.360;2023-05-17T04:05:15;100347.22;;;17.14;53.00
26487;BME280;14425;56.136;40.360;2023-05-17T04:07:41;100341.63;;;17.40;51.72
26487;BME280;14425;56.136;40.360;2023-05-17T04:10:07;100351.28;;;17.45;50.75
26487;BME280;14425;56.136;40.360;2023-05-17T04:12:33;100347.00;;;17.49;50.31
26487;BME280;14425;56.136;40.360;2023-05-17T04:15:00;100350.00;;;16.82;51.01
26487;BME280;14425;56.136;40.360;2023-05-17T04:17:26;100347.25;;;17.15;50.96
26487;BME280;14425;56.136;40.360;2023-05-17T04:19:52;100348.75;;;17.48;49.65
26487;BME280;14425;56.136;40.360;2023-05-17T04:22:19;100348.81;;;17.53;49.11
26487;BME280;14425;56.136;40.360;2023-05-17T04:24:44;100349.19;;;17.74;48.50
26487;BME280;14425;56.136;40.360;2023-05-17T04:27:10;100349.78;;;17.60;50.04
26487;BME280;14425;56.136;40.360;2023-05-17T04:29:36;100354.31;;;17.68;49.33
26487;BME280;14425;56.136;40.360;2023-05-17T04:32:01;100349.25;;;17.78;49.11
26487;BME280;14425;56.136;40.360;2023-05-17T04:34:27;100350.97;;;17.76;48.38
26487;BME280;14425;56.136;40.360;2023-05-17T04:36:52;100346.94;;;17.91;48.78
26487;BME280;14425;56.136;40.360;2023-05-17T04:39:19;100348.94;;;18.09;48.05
26487;BME280;14425;56.136;40.360;2023-05-17T04:41:45;100348.25;;;18.20;47.62
26487;BME280;14425;56.136;40.360;2023-05-17T04:44:10;100345.81;;;18.32;47.89
26487;BME280;14425;56.136;40.360;2023-05-17T04:46:36;100340.47;;;18.24;47.61
26487;BME280;14425;56.136;40.360;2023-05-17T04:49:02;100353.41;;;17.65;46.79
26487;BME280;14425;56.136;40.360;2023-05-17T04:51:29;100356.00;;;17.66;47.08
26487;BME280;14425;56.136;40.360;2023-05-17T04:53:55;100356.06;;;18.18;46.75
26487;BME280;14425;56.136;40.360;2023-05-17T04:56:20;100354.38;;;18.22;46.22
26487;BME280;14425;56.136;40.360;2023-05-17T04:58:47;100352.91;;;18.41;45.29
26487;BME280;14425;56.136;40.360;2023-05-17T05:01:12;100355.78;;;18.03;45.80
26487;BME280;14425;56.136;40.360;2023-05-17T05:03:38;100357.41;;;17.93;46.78
26487;BME280;14425;56.136;40.360;2023-05-17T05:06:03;100362.16;;;18.19;45.62
26487;BME280;14425;56.136;40.360;2023-05-17T05:08:32;100355.97;;;18.14;45.14
26487;BME280;14425;56.136;40.360;2023-05-17T05:10:58;100362.69;;;17.99;43.84
26487;BME280;14425;56.136;40.360;2023-05-17T05:13:24;100358.00;;;17.80;44.29
26487;BME280;14425;56.136;40.360;2023-05-17T05:15:49;100358.44;;;18.04;44.05
26487;BME280;14425;56.136;40.360;2023-05-17T05:18:15;100360.66;;;18.35;43.74
26487;BME280;14425;56.136;40.360;2023-05-17T05:20:40;100358.91;;;18.35;43.77
26487;BME280;14425;56.136;40.360;2023-05-17T05:23:06;100357.44;;;18.53;43.00
26487;BME280;14425;56.136;40.360;2023-05-17T05:25:32;100356.81;;;18.71;42.54
26487;BME280;14425;56.136;40.360;2023-05-17T05:27:57;100361.84;;;18.57;42.28
26487;BME280;14425;56.136;40.360;2023-05-17T05:30:23;100355.59;;;18.45;41.70
26487;BME280;14425;56.136;40.360;2023-05-17T05:32:49;100359.22;;;18.57;42.63
26487;BME280;14425;56.136;40.360;2023-05-17T05:35:15;100364.66;;;18.72;42.39
26487;BME280;14425;56.136;40.360;2023-05-17T05:37:41;100357.97;;;18.90;41.62
26487;BME280;14425;56.136;40.360;2023-05-17T05:40:08;100356.38;;;19.04;41.73
26487;BME280;14425;56.136;40.360;2023-05-17T05:42:34;100359.13;;;19.13;41.03
26487;BME280;14425;56.136;40.360;2023-05-17T05:44:59;100357.59;;;19.31;41.25
26487;BME280;14425;56.136;40.360;2023-05-17T05:47:25;100363.53;;;19.17;41.24
26487;BME280;14425;56.136;40.360;2023-05-17T05:49:50;100354.19;;;19.38;39.70
26487;BME280;14425;56.136;40.360;2023-05-17T05:52:16;100356.25;;;19.73;39.50
26487;BME280;14425;56.136;40.360;2023-05-17T05:54:41;100359.03;;;19.88;38.70
26487;BME280;14425;56.136;40.360;2023-05-17T05:57:07;100351.53;;;20.33;37.75
26487;BME280;14425;56.136;40.360;2023-05-17T05:59:32;100350.72;;;20.45;37.77
26487;BME280;14425;56.136;40.360;2023-05-17T06:01:57;100353.34;;;20.42;37.33
26487;BME280;14425;56.136;40.360;2023-05-17T06:04:23;100354.34;;;20.62;37.56
26487;BME280;14425;56.136;40.360;2023-05-17T06:06:49;100344.91;;;20.92;36.46
26487;BME280;14425;56.136;40.360;2023-05-17T06:09:15;100346.72;;;21.15;35.74
26487;BME280;14425;56.136;40.360;2023-05-17T06:11:41;100351.06;;;21.00;35.91
26487;BME280;14425;56.136;40.360;2023-05-17T06:14:06;100351.91;;;20.98;35.48
26487;BME280;14425;56.136;40.360;2023-05-17T06:16:33;100352.94;;;21.45;35.73
26487;BME280;14425;56.136;40.360;2023-05-17T06:18:59;100362.63;;;21.53;35.12
26487;BME280;14425;56.136;40.360;2023-05-17T06:21:24;100353.03;;;21.72;36.00
26487;BME280;14425;56.136;40.360;2023-05-17T06:23:50;100354.78;;;21.76;36.09
26487;BME280;14425;56.136;40.360;2023-05-17T06:26:15;100365.25;;;21.80;36.25
26487;BME280;14425;56.136;40.360;2023-05-17T06:28:41;100360.00;;;21.49;34.61
26487;BME280;14425;56.136;40.360;2023-05-17T06:31:06;100361.75;;;21.64;35.73
26487;BME280;14425;56.136;40.360;2023-05-17T06:33:32;100360.88;;;21.69;35.18
26487;BME280;14425;56.136;40.360;2023-05-17T06:35:57;100362.66;;;21.75;35.61
26487;BME280;14425;56.136;40.360;2023-05-17T06:38:23;100368.81;;;22.05;35.51
26487;BME280;14425;56.136;40.360;2023-05-17T06:40:53;100365.28;;;22.43;34.07
26487;BME280;14425;56.136;40.360;2023-05-17T06:43:19;100370.56;;;22.41;33.94
26487;BME280;14425;56.136;40.360;2023-05-17T06:45:44;100370.34;;;23.11;33.66
26487;BME280;14425;56.136;40.360;2023-05-17T06:48:11;100360.88;;;22.51;34.46
26487;BME280;14425;56.136;40.360;2023-05-17T06:50:36;100372.19;;;22.81;34.78
26487;BME280;14425;56.136;40.360;2023-05-17T06:53:03;100365.94;;;23.19;34.16
26487;BME280;14425;56.136;40.360;2023-05-17T06:55:28;100366.81;;;23.21;33.68
26487;BME280;14425;56.136;40.360;2023-05-17T06:57:54;100369.34;;;23.39;33.48
26487;BME280;14425;56.136;40.360;2023-05-17T07:00:20;100366.84;;;23.13;33.55
26487;BME280;14425;56.136;40.360;2023-05-17T07:02:45;100368.84;;;24.12;33.25
26487;BME280;14425;56.136;40.360;2023-05-17T07:05:11;100360.22;;;23.97;32.34
26487;BME280;14425;56.136;40.360;2023-05-17T07:07:36;100358.44;;;24.00;31.94
26487;BME280;14425;56.136;40.360;2023-05-17T07:10:06;100363.84;;;24.79;31.61
26487;BME280;14425;56.136;40.360;2023-05-17T07:12:32;100358.72;;;24.63;31.46
26487;BME280;14425;56.136;40.360;2023-05-17T07:14:58;100357.06;;;24.50;31.85
26487;BME280;14425;56.136;40.360;2023-05-17T07:17:24;100357.03;;;24.51;31.34
26487;BME280;14425;56.136;40.360;2023-05-17T07:19:49;100363.66;;;24.06;31.93
26487;BME280;14425;56.136;40.360;2023-05-17T07:22:17;100363.50;;;24.20;31.71
26487;BME280;14425;56.136;40.360;2023-05-17T07:24:44;100353.72;;;24.35;32.13
26487;BME280;14425;56.136;40.360;2023-05-17T07:27:09;100353.03;;;24.12;32.28
26487;BME280;14425;56.136;40.360;2023-05-17T07:29:35;100348.16;;;24.65;32.20
26487;BME280;14425;56.136;40.360;2023-05-17T07:32:00;100348.13;;;25.38;32.35
26487;BME280;14425;56.136;40.360;2023-05-17T07:34:26;100341.06;;;25.38;31.23
26487;BME280;14425;56.136;40.360;2023-05-17T07:36:52;100348.31;;;24.48;31.77
26487;BME280;14425;56.136;40.360;2023-05-17T07:39:17;100339.91;;;25.58;31.65
26487;BME280;14425;56.136;40.360;2023-05-17T07:41:43;100345.56;;;25.32;30.86
26487;BME280;14425;56.136;40.360;2023-05-17T07:44:09;100346.16;;;24.85;30.99
26487;BME280;14425;56.136;40.360;2023-05-17T07:46:35;100347.44;;;25.22;31.13
26487;BME280;14425;56.136;40.360;2023-05-17T07:49:01;100334.94;;;25.36;30.36
26487;BME280;14425;56.136;40.360;2023-05-17T07:51:27;100335.63;;;25.51;29.99
26487;BME280;14425;56.136;40.360;2023-05-17T07:53:52;100343.94;;;25.20;31.50
26487;BME280;14425;56.136;40.360;2023-05-17T07:56:18;100334.81;;;25.47;30.26
26487;BME280;14425;56.136;40.360;2023-05-17T07:58:43;100332.59;;;26.30;29.54
26487;BME280;14425;56.136;40.360;2023-05-17T08:01:09;100333.16;;;26.46;28.92
26487;BME280;14425;56.136;40.360;2023-05-17T08:03:35;100332.28;;;25.97;29.54
26487;BME280;14425;56.136;40.360;2023-05-17T08:06:01;100328.94;;;25.84;29.43
26487;BME280;14425;56.136;40.360;2023-05-17T08:08:26;100331.97;;;25.58;29.41
26487;BME280;14425;56.136;40.360;2023-05-17T08:10:52;100335.44;;;25.61;29.68
26487;BME280;14425;56.136;40.360;2023-05-17T08:13:18;100327.56;;;26.14;28.58
26487;BME280;14425;56.136;40.360;2023-05-17T08:15:44;100330.59;;;25.90;29.01
26487;BME280;14425;56.136;40.360;2023-05-17T08:18:09;100330.03;;;26.72;27.97
26487;BME280;14425;56.136;40.360;2023-05-17T08:20:35;100317.31;;;28.05;27.43
26487;BME280;14425;56.136;40.360;2023-05-17T08:23:01;100333.34;;;27.22;27.14
26487;BME280;14425;56.136;40.360;2023-05-17T08:25:26;100333.69;;;26.66;28.12
26487;BME280;14425;56.136;40.360;2023-05-17T08:27:53;100331.94;;;26.62;28.66
26487;BME280;14425;56.136;40.360;2023-05-17T08:30:19;100325.84;;;26.12;28.55
26487;BME280;14425;56.136;40.360;2023-05-17T08:32:44;100324.03;;;26.64;28.52
26487;BME280;14425;56.136;40.360;2023-05-17T08:35:10;100315.97;;;26.70;27.28
26487;BME280;14425;56.136;40.360;2023-05-17T08:37:36;100322.47;;;26.52;28.52
26487;BME280;14425;56.136;40.360;2023-05-17T08:40:03;100310.25;;;27.31;27.65
26487;BME280;14425;56.136;40.360;2023-05-17T08:42:31;100308.75;;;27.58;26.50
26487;BME280;14425;56.136;40.360;2023-05-17T08:44:56;100295.94;;;27.75;26.59
26487;BME280;14425;56.136;40.360;2023-05-17T08:47:23;100294.66;;;27.56;27.15
26487;BME280;14425;56.136;40.360;2023-05-17T08:49:53;100294.31;;;27.34;26.36
26487;BME280;14425;56.136;40.360;2023-05-17T08:52:20;100297.97;;;27.64;26.09
26487;BME280;14425;56.136;40.360;2023-05-17T08:54:46;100300.88;;;27.14;27.82
26487;BME280;14425;56.136;40.360;2023-05-17T08:57:15;100305.59;;;27.01;27.50
26487;BME280;14425;56.136;40.360;2023-05-17T08:59:43;100290.69;;;28.10;26.94
26487;BME280;14425;56.136;40.360;2023-05-17T09:02:12;100291.34;;;27.82;26.66
26487;BME280;14425;56.136;40.360;2023-05-17T09:04:38;100297.25;;;27.57;26.94
26487;BME280;14425;56.136;40.360;2023-05-17T09:07:05;100315.38;;;26.98;27.06
26487;BME280;14425;56.136;40.360;2023-05-17T09:09:32;100298.72;;;27.35;27.03
26487;BME280;14425;56.136;40.360;2023-05-17T09:11:58;100284.38;;;28.14;26.95
26487;BME280;14425;56.136;40.360;2023-05-17T09:14:24;100290.53;;;28.16;25.94
26487;BME280;14425;56.136;40.360;2023-05-17T09:16:55;100288.47;;;27.57;26.10
26487;BME280;14425;56.136;40.360;2023-05-17T09:19:22;100296.47;;;27.16;25.88
26487;BME280;14425;56.136;40.360;2023-05-17T09:21:48;100293.81;;;26.29;27.45
26487;BME280;14425;56.136;40.360;2023-05-17T09:24:13;100287.69;;;27.13;26.70
26487;BME280;14425;56.136;40.360;2023-05-17T09:26:44;100275.94;;;28.32;26.34
26487;BME280;14425;56.136;40.360;2023-05-17T09:29:15;100269.66;;;29.53;25.23
26487;BME280;14425;56.136;40.360;2023-05-17T09:31:41;100265.63;;;30.19;24.75
26487;BME280;14425;56.136;40.360;2023-05-17T09:34:08;100277.75;;;29.21;25.59
26487;BME280;14425;56.136;40.360;2023-05-17T09:36:35;100267.38;;;29.95;25.47
26487;BME280;14425;56.136;40.360;2023-05-17T09:39:06;100264.34;;;29.26;25.53
26487;BME280;14425;56.136;40.360;2023-05-17T09:41:43;100278.78;;;26.76;27.49
26487;BME280;14425;56.136;40.360;2023-05-17T09:44:10;100266.59;;;25.74;28.93
26487;BME280;14425;56.136;40.360;2023-05-17T09:46:41;100275.28;;;25.23;28.99
26487;BME280;14425;56.136;40.360;2023-05-17T09:49:09;100273.75;;;26.62;28.44
26487;BME280;14425;56.136;40.360;2023-05-17T09:51:40;100265.50;;;27.56;26.38
26487;BME280;14425;56.136;40.360;2023-05-17T09:54:09;100257.19;;;28.06;27.08
26487;BME280;14425;56.136;40.360;2023-05-17T09:56:35;100257.63;;;29.42;26.35
26487;BME280;14425;56.136;40.360;2023-05-17T09:59:03;100254.50;;;30.33;25.34
26487;BME280;14425;56.136;40.360;2023-05-17T10:01:30;100264.63;;;28.87;25.75
26487;BME280;14425;56.136;40.360;2023-05-17T10:04:00;100255.06;;;28.18;26.13
26487;BME280;14425;56.136;40.360;2023-05-17T10:06:29;100271.72;;;26.78;27.05
26487;BME280;14425;56.136;40.360;2023-05-17T10:08:59;100253.63;;;27.38;26.62
26487;BME280;14425;56.136;40.360;2023-05-17T10:11:27;100259.34;;;27.55;26.79
26487;BME280;14425;56.136;40.360;2023-05-17T10:14:04;100260.25;;;26.32;27.67
26487;BME280;14425;56.136;40.360;2023-05-17T10:16:36;100253.53;;;26.16;28.67
26487;BME280;14425;56.136;40.360;2023-05-17T10:19:02;100251.50;;;26.30;28.59
26487;BME280;14425;56.136;40.360;2023-05-17T10:21:31;100241.69;;;27.90;27.10
26487;BME280;14425;56.136;40.360;2023-05-17T10:23:58;100239.56;;;28.97;27.17
26487;BME280;14425;56.136;40.360;2023-05-17T10:26:26;100244.66;;;27.78;27.24
26487;BME280;14425;56.136;40.360;2023-05-17T10:28:59;100255.97;;;26.70;27.19
26487;BME280;14425;56.136;40.360;2023-05-17T10:31:32;100251.03;;;26.08;28.10
26487;BME280;14425;56.136;40.360;2023-05-17T10:34:03;100236.41;;;25.87;28.82
26487;BME280;14425;56.136;40.360;2023-05-17T10:36:29;100231.09;;;26.37;28.75
26487;BME280;14425;56.136;40.360;2023-05-17T10:38:55;100228.25;;;27.26;27.79
26487;BME280;14425;56.136;40.360;2023-05-17T10:41:24;100231.13;;;27.54;27.17
26487;BME280;14425;56.136;40.360;2023-05-17T10:43:52;100222.91;;;27.29;26.69
26487;BME280;14425;56.136;40.360;2023-05-17T10:46:19;100223.94;;;27.22;26.26
26487;BME280;14425;56.136;40.360;2023-05-17T10:48:50;100226.25;;;27.72;26.72
26487;BME280;14425;56.136;40.360;2023-05-17T10:51:21;100223.22;;;28.51;26.28
26487;BME280;14425;56.136;40.360;2023-05-17T10:54:08;100224.81;;;27.22;26.21
26487;BME280;14425;56.136;40.360;2023-05-17T10:56:45;100229.22;;;26.42;27.91
26487;BME280;14425;56.136;40.360;2023-05-17T10:59:22;100223.59;;;27.00;27.07
26487;BME280;14425;56.136;40.360;2023-05-17T11:04:20;100219.09;;;27.03;27.48
26487;BME280;14425;56.136;40.360;2023-05-17T11:06:47;100222.72;;;27.37;28.02
26487;BME280;14425;56.136;40.360;2023-05-17T11:09:14;100217.72;;;27.95;26.67
26487;BME280;14425;56.136;40.360;2023-05-17T11:12:04;100217.84;;;27.89;27.11
26487;BME280;14425;56.136;40.360;2023-05-17T11:14:46;100210.13;;;28.45;26.76
26487;BME280;14425;56.136;40.360;2023-05-17T11:17:23;100210.19;;;29.02;25.33
26487;BME280;14425;56.136;40.360;2023-05-17T11:22:23;100218.94;;;28.16;25.17
26487;BME280;14425;56.136;40.360;2023-05-17T11:24:50;100211.59;;;28.85;25.88
26487;BME280;14425;56.136;40.360;2023-05-17T11:27:20;100204.88;;;29.57;24.57
26487;BME280;14425;56.136;40.360;2023-05-17T11:29:52;100207.09;;;29.16;24.88
26487;BME280;14425;56.136;40.360;2023-05-17T11:32:30;100198.09;;;28.93;24.54
26487;BME280;14425;56.136;40.360;2023-05-17T11:34:58;100192.75;;;28.04;26.12
26487;BME280;14425;56.136;40.360;2023-05-17T11:37:28;100186.88;;;28.83;25.20
26487;BME280;14425;56.136;40.360;2023-05-17T11:40:17;100186.66;;;28.00;25.32
26487;BME280;14425;56.136;40.360;2023-05-17T11:42:48;100188.53;;;28.28;25.24
26487;BME280;14425;56.136;40.360;2023-05-17T11:45:17;100188.84;;;27.14;26.69
26487;BME280;14425;56.136;40.360;2023-05-17T11:47:47;100185.31;;;27.15;26.68
26487;BME280;14425;56.136;40.360;2023-05-17T11:50:13;100182.94;;;27.74;26.02
26487;BME280;14425;56.136;40.360;2023-05-17T11:52:42;100187.81;;;27.19;26.21
26487;BME280;14425;56.136;40.360;2023-05-17T11:55:07;100187.44;;;26.99;26.39
26487;BME280;14425;56.136;40.360;2023-05-17T11:57:38;100184.94;;;27.30;25.54
26487;BME280;14425;56.136;40.360;2023-05-17T12:00:07;100179.94;;;28.19;25.41
26487;BME280;14425;56.136;40.360;2023-05-17T12:02:33;100176.53;;;27.49;25.64
26487;BME280;14425;56.136;40.360;2023-05-17T12:04:58;100169.06;;;27.30;25.84
26487;BME280;14425;56.136;40.360;2023-05-17T12:07:24;100174.25;;;27.35;26.11
26487;BME280;14425;56.136;40.360;2023-05-17T12:09:51;100174.31;;;27.32;26.71
26487;BME280;14425;56.136;40.360;2023-05-17T12:12:17;100171.47;;;28.36;26.06
26487;BME280;14425;56.136;40.360;2023-05-17T12:14:46;100170.41;;;28.12;25.41
26487;BME280;14425;56.136;40.360;2023-05-17T12:17:22;100169.50;;;27.80;26.32
26487;BME280;14425;56.136;40.360;2023-05-17T12:19:51;100167.22;;;28.31;25.70
26487;BME280;14425;56.136;40.360;2023-05-17T12:22:16;100176.31;;;28.52;25.44
26487;BME280;14425;56.136;40.360;2023-05-17T12:24:42;100166.13;;;28.38;25.90
26487;BME280;14425;56.136;40.360;2023-05-17T12:27:09;100157.88;;;29.05;24.53
26487;BME280;14425;56.136;40.360;2023-05-17T12:29:34;100161.91;;;29.19;24.41
26487;BME280;14425;56.136;40.360;2023-05-17T12:32:00;100159.84;;;28.70;24.96
26487;BME280;14425;56.136;40.360;2023-05-17T12:34:27;100167.97;;;27.72;26.17
26487;BME280;14425;56.136;40.360;2023-05-17T12:36:54;100155.81;;;26.92;27.01
26487;BME280;14425;56.136;40.360;2023-05-17T12:39:20;100158.47;;;27.28;26.21
26487;BME280;14425;56.136;40.360;2023-05-17T12:41:52;100147.41;;;27.11;27.07
26487;BME280;14425;56.136;40.360;2023-05-17T12:44:18;100151.34;;;26.96;27.08
26487;BME280;14425;56.136;40.360;2023-05-17T12:46:47;100145.59;;;27.49;26.26
26487;BME280;14425;56.136;40.360;2023-05-17T12:49:18;100149.34;;;28.08;25.62
26487;BME280;14425;56.136;40.360;2023-05-17T12:51:46;100143.47;;;27.63;25.71
26487;BME280;14425;56.136;40.360;2023-05-17T12:54:14;100148.00;;;26.47;26.51
26487;BME280;14425;56.136;40.360;2023-05-17T12:56:43;100147.34;;;26.37;27.46